createdAt,value
2018-02-17T00:00:59.444Z,-1.50
2018-02-17T00:03:26.973Z,-1.70
2018-02-17T00:05:54.550Z,-1.80
2018-02-17T00:08:22.124Z,-1.70
2018-02-17T00:10:49.664Z,-1.50
2018-02-17T00:13:17.237Z,-1.30
2018-02-17T00:15:44.780Z,-1.30
2018-02-17T00:18:12.880Z,-1.30
2018-02-17T00:20:40.442Z,-1.30
2018-02-17T00:23:07.968Z,-1.40
2018-02-17T00:25:35.535Z,-1.40
2018-02-17T00:28:03.832Z,-1.30
2018-02-17T00:30:32.155Z,-1.30
2018-02-17T00:32:59.680Z,-1.30
2018-02-17T00:35:27.245Z,-1.20
2018-02-17T00:37:54.767Z,-1.10
2018-02-17T00:40:22.327Z,-1.00
2018-02-17T00:42:49.888Z,-1.00
2018-02-17T00:45:18.380Z,-1.00
2018-02-17T00:47:46.676Z,-0.90
2018-02-17T00:50:15.011Z,-0.90
2018-02-17T00:52:42.568Z,-0.90
2018-02-17T00:55:10.149Z,-0.90
2018-02-17T00:57:37.688Z,-0.90
2018-02-17T01:00:06.013Z,-0.90
2018-02-17T01:02:33.549Z,-0.90
2018-02-17T01:05:01.912Z,-0.80
2018-02-17T01:07:29.428Z,-0.80
2018-02-17T01:09:57.013Z,-0.70
2018-02-17T01:12:24.546Z,-0.70
2018-02-17T01:14:52.107Z,-0.60
2018-02-17T01:17:19.640Z,-0.50
2018-02-17T01:19:47.196Z,-0.50
2018-02-17T01:22:14.736Z,-0.60
2018-02-17T01:24:42.288Z,-0.50
2018-02-17T01:27:09.808Z,-0.50
2018-02-17T01:29:38.135Z,-0.70
2018-02-17T01:32:05.668Z,-0.70
2018-02-17T01:34:33.996Z,-0.80
2018-02-17T01:37:01.521Z,-0.80
2018-02-17T01:39:29.085Z,-0.70
2018-02-17T01:41:56.616Z,-0.70
2018-02-17T01:44:24.169Z,-0.80
2018-02-17T01:46:51.692Z,-0.80
2018-02-17T01:49:19.248Z,-0.80
2018-02-17T01:51:46.788Z,-0.70
2018-02-17T01:54:14.358Z,-0.70
2018-02-17T01:56:41.891Z,-0.70
2018-02-17T01:59:09.471Z,-0.80
2018-02-17T02:01:37.012Z,-0.80
2018-02-17T02:04:04.560Z,-0.80
2018-02-17T02:09:23.436Z,-0.80
2018-02-17T02:11:51.757Z,-0.80
2018-02-17T02:14:19.288Z,-0.80
2018-02-17T02:16:46.864Z,-0.80
2018-02-17T02:19:14.388Z,-0.80
2018-02-17T02:21:41.912Z,-0.80
2018-02-17T02:24:10.243Z,-0.80
2018-02-17T02:26:37.773Z,-0.80
2018-02-17T02:29:05.350Z,-0.70
2018-02-17T02:31:33.624Z,-0.60
2018-02-17T02:34:01.189Z,-0.60
2018-02-17T02:36:28.728Z,-0.60
2018-02-17T02:38:56.264Z,-0.70
2018-02-17T02:41:24.736Z,-0.70
2018-02-17T02:43:52.246Z,-0.80
2018-02-17T02:46:19.807Z,-0.70
2018-02-17T02:48:48.102Z,-0.50
2018-02-17T02:51:15.656Z,-0.50
2018-02-17T02:53:43.944Z,-0.30
2018-02-17T02:56:12.269Z,-0.30
2018-02-17T02:58:39.803Z,-0.30
2018-02-17T03:01:08.120Z,-0.40
2018-02-17T03:03:35.628Z,-0.40
2018-02-17T03:06:03.185Z,-0.30
2018-02-17T03:08:32.318Z,-0.20
2018-02-17T03:10:59.863Z,-0.20
2018-02-17T03:13:27.371Z,-0.20
2018-02-17T03:15:54.979Z,-0.10
2018-02-17T03:18:22.489Z,-0.10
2018-02-17T03:20:50.032Z,-0.10
2018-02-17T03:23:17.551Z,0.00
2018-02-17T03:25:45.107Z,0.00
2018-02-17T03:28:12.625Z,0.00
2018-02-17T03:30:40.186Z,0.00
2018-02-17T03:33:07.739Z,0.00
2018-02-17T03:35:35.289Z,0.00
2018-02-17T03:38:02.803Z,0.00
2018-02-17T03:40:31.142Z,0.00
2018-02-17T03:42:58.667Z,-0.10
2018-02-17T03:45:26.223Z,-0.10
2018-02-17T03:47:53.738Z,-0.10
2018-02-17T03:50:21.286Z,-0.10
2018-02-17T03:52:48.806Z,-0.10
2018-02-17T03:55:16.363Z,-0.10
2018-02-17T03:57:43.888Z,0.00
2018-02-17T04:00:11.428Z,-0.10
2018-02-17T04:02:38.943Z,-0.10
2018-02-17T04:05:06.722Z,0.00
2018-02-17T04:07:35.020Z,0.00
2018-02-17T04:10:03.297Z,0.10
2018-02-17T04:12:30.850Z,0.00
2018-02-17T04:14:58.368Z,0.00
2018-02-17T04:17:26.713Z,0.00
2018-02-17T04:19:54.231Z,-0.10
2018-02-17T04:22:21.748Z,-0.10
2018-02-17T04:24:49.296Z,-0.10
2018-02-17T04:27:16.819Z,-0.20
2018-02-17T04:29:44.367Z,-0.20
2018-02-17T04:32:11.880Z,-0.20
2018-02-17T04:34:40.207Z,-0.20
2018-02-17T04:37:07.724Z,-0.30
2018-02-17T04:39:42.060Z,-0.20
2018-02-17T04:42:20.275Z,0.00
2018-02-17T04:44:48.719Z,0.00
2018-02-17T04:47:24.936Z,0.00
2018-02-17T04:49:52.991Z,0.00
2018-02-17T04:52:26.156Z,0.00
2018-02-17T04:55:04.383Z,0.00
2018-02-17T04:57:39.087Z,0.00
2018-02-17T05:00:12.126Z,0.00
2018-02-17T05:02:57.498Z,0.00
2018-02-17T05:05:29.345Z,0.00
2018-02-17T05:07:58.389Z,0.00
2018-02-17T05:10:25.897Z,0.10
2018-02-17T05:12:53.439Z,0.10
2018-02-17T05:15:20.962Z,0.20
2018-02-17T05:17:54.288Z,0.10
2018-02-17T05:20:21.803Z,0.20
2018-02-17T05:26:03.823Z,0.20
2018-02-17T05:28:45.052Z,0.20
2018-02-17T05:31:12.571Z,0.10
2018-02-17T05:33:45.813Z,0.10
2018-02-17T05:36:29.127Z,0.10
2018-02-17T05:38:56.669Z,0.10
2018-02-17T05:41:26.111Z,0.00
2018-02-17T05:43:53.651Z,-0.10
2018-02-17T05:46:23.070Z,-0.10
2018-02-17T05:48:50.615Z,-0.10
2018-02-17T05:51:18.128Z,-0.10
2018-02-17T05:53:45.668Z,-0.20
2018-02-17T05:56:13.191Z,-0.20
2018-02-17T05:58:42.208Z,-0.10
2018-02-17T06:01:10.487Z,-0.10
2018-02-17T06:03:38.807Z,-0.10
2018-02-17T06:06:06.323Z,0.00
2018-02-17T06:08:33.866Z,0.00
2018-02-17T06:11:01.419Z,-0.10
2018-02-17T06:13:28.935Z,-0.20
2018-02-17T06:15:56.488Z,-0.20
2018-02-17T06:18:24.023Z,-0.30
2018-02-17T06:20:51.580Z,-0.40
2018-02-17T06:23:19.873Z,-0.40
2018-02-17T06:25:48.182Z,-0.30
2018-02-17T06:28:15.714Z,-0.30
2018-02-17T06:30:43.271Z,-0.30
2018-02-17T06:33:10.828Z,-0.30
2018-02-17T06:35:38.344Z,-0.40
2018-02-17T06:38:05.883Z,-0.40
2018-02-17T06:40:33.403Z,-0.40
2018-02-17T06:43:00.968Z,-0.40
2018-02-17T06:45:29.253Z,-0.40
2018-02-17T06:47:56.771Z,-0.50
2018-02-17T06:50:24.557Z,-0.50
2018-02-17T06:52:52.081Z,-0.50
2018-02-17T06:55:19.624Z,-0.60
2018-02-17T06:57:47.140Z,-0.60
2018-02-17T07:00:14.704Z,-0.70
2018-02-17T07:02:42.228Z,-0.60
2018-02-17T07:05:09.787Z,-0.60
2018-02-17T07:07:37.327Z,-0.60
2018-02-17T07:10:04.886Z,-0.60
2018-02-17T07:12:33.172Z,-0.50
2018-02-17T07:15:00.715Z,-0.50
2018-02-17T07:17:28.285Z,-0.40
2018-02-17T07:19:55.805Z,-0.40
2018-02-17T07:22:23.512Z,-0.40
2018-02-17T07:24:51.052Z,-0.30
2018-02-17T07:27:18.636Z,-0.30
2018-02-17T07:29:46.192Z,-0.30
2018-02-17T07:32:13.728Z,-0.30
2018-02-17T07:34:41.288Z,-0.30
2018-02-17T07:37:08.821Z,-0.30
2018-02-17T07:39:36.372Z,-0.20
2018-02-17T07:42:04.655Z,-0.10
2018-02-17T07:44:32.963Z,0.00
2018-02-17T07:47:00.965Z,-0.10
2018-02-17T07:49:28.504Z,0.10
2018-02-17T07:51:56.023Z,0.10
2018-02-17T07:54:23.580Z,0.20
2018-02-17T07:56:51.102Z,0.30
2018-02-17T07:59:18.681Z,0.50
2018-02-17T08:01:46.964Z,0.70
2018-02-17T08:04:14.536Z,0.70
2018-02-17T08:06:42.060Z,0.80
2018-02-17T08:09:10.344Z,0.90
2018-02-17T08:11:37.913Z,0.80
2018-02-17T08:14:05.462Z,0.90
2018-02-17T08:16:33.808Z,1.00
2018-02-17T08:19:01.342Z,1.00
2018-02-17T08:21:28.876Z,1.10
2018-02-17T08:23:56.492Z,1.20
2018-02-17T08:26:24.008Z,1.30
2018-02-17T08:28:52.329Z,1.40
2018-02-17T08:31:20.652Z,1.50
2018-02-17T08:33:48.155Z,1.50
2018-02-17T08:36:15.696Z,1.60
2018-02-17T08:38:43.211Z,1.70
2018-02-17T08:41:10.766Z,1.70
2018-02-17T08:43:38.292Z,1.80
2018-02-17T08:46:05.864Z,1.80
2018-02-17T08:48:33.388Z,1.90
2018-02-17T08:51:00.933Z,2.00
2018-02-17T08:53:28.448Z,2.00
2018-02-17T08:55:55.992Z,2.00
2018-02-17T08:58:23.503Z,2.00
2018-02-17T09:00:51.803Z,2.10
2018-02-17T09:03:19.314Z,2.10
2018-02-17T09:05:46.899Z,2.10
2018-02-17T09:08:14.411Z,2.10
2018-02-17T09:10:48.472Z,2.30
2018-02-17T09:13:15.987Z,2.30
2018-02-17T09:15:43.587Z,2.40
2018-02-17T09:18:11.914Z,2.60
2018-02-17T09:20:39.431Z,2.50
2018-02-17T09:23:06.999Z,2.70
2018-02-17T09:25:34.524Z,2.80
2018-02-17T09:28:02.071Z,2.80
2018-02-17T09:30:30.344Z,3.00
2018-02-17T09:32:58.664Z,3.00
2018-02-17T09:35:26.173Z,3.00
2018-02-17T09:37:53.728Z,3.10
2018-02-17T09:40:21.268Z,3.20
2018-02-17T09:42:49.595Z,3.30
2018-02-17T09:45:17.131Z,3.30
2018-02-17T09:47:44.682Z,3.40
2018-02-17T09:50:12.197Z,3.40
2018-02-17T09:52:39.744Z,3.50
2018-02-17T09:55:08.030Z,3.50
2018-02-17T09:57:36.343Z,3.50
2018-02-17T10:00:03.855Z,3.50
2018-02-17T10:02:31.404Z,3.60
2018-02-17T10:04:58.976Z,3.60
2018-02-17T10:07:30.881Z,3.70
2018-02-17T10:09:58.396Z,3.80
2018-02-17T10:12:25.931Z,3.80
2018-02-17T10:14:53.493Z,3.90
2018-02-17T10:17:21.024Z,4.10
2018-02-17T10:19:48.590Z,4.20
2018-02-17T10:22:16.137Z,4.20
2018-02-17T10:24:43.715Z,4.30
2018-02-17T10:27:11.995Z,4.40
2018-02-17T10:29:39.555Z,4.40
2018-02-17T10:32:07.068Z,4.40
2018-02-17T10:34:34.631Z,4.60
2018-02-17T10:37:02.912Z,4.90
2018-02-17T10:39:31.244Z,5.10
2018-02-17T10:41:58.808Z,5.10
2018-02-17T10:44:26.332Z,5.30
2018-02-17T10:46:53.891Z,5.30
2018-02-17T10:49:21.418Z,5.50
2018-02-17T10:51:48.967Z,5.60
2018-02-17T10:54:16.498Z,5.80
2018-02-17T10:56:44.061Z,5.80
2018-02-17T10:59:11.580Z,5.90
2018-02-17T11:01:39.917Z,6.20
2018-02-17T11:04:07.450Z,6.10
2018-02-17T11:06:35.016Z,6.00
2018-02-17T11:09:02.591Z,5.80
2018-02-17T11:11:30.886Z,5.90
2018-02-17T11:13:59.174Z,6.10
2018-02-17T11:16:27.492Z,6.30
2018-02-17T11:18:55.016Z,6.30
2018-02-17T11:21:22.564Z,6.40
2018-02-17T11:23:50.076Z,6.20
2018-02-17T11:26:17.622Z,6.40
2018-02-17T11:28:45.145Z,6.60
2018-02-17T11:31:12.704Z,6.80
2018-02-17T11:33:40.264Z,6.90
2018-02-17T11:36:08.583Z,7.00
2018-02-17T11:38:36.554Z,7.00
2018-02-17T11:41:04.096Z,7.00
2018-02-17T11:43:31.603Z,7.00
2018-02-17T11:45:59.143Z,7.10
2018-02-17T11:48:27.440Z,7.10
2018-02-17T11:50:54.983Z,7.10
2018-02-17T11:53:22.500Z,7.20
2018-02-17T11:55:50.053Z,7.20
2018-02-17T11:58:18.340Z,7.30
2018-02-17T12:00:46.646Z,7.10
2018-02-17T12:03:14.156Z,7.10
2018-02-17T12:05:41.722Z,7.10
2018-02-17T12:08:09.242Z,7.00
2018-02-17T12:10:37.573Z,6.90
2018-02-17T12:13:05.088Z,6.90
2018-02-17T12:15:32.645Z,6.80
2018-02-17T12:18:00.160Z,6.30
2018-02-17T12:20:27.748Z,6.40
2018-02-17T12:22:55.308Z,6.60
2018-02-17T12:25:22.845Z,6.80
2018-02-17T12:27:50.364Z,7.00
2018-02-17T12:30:17.916Z,7.10
2018-02-17T12:32:46.187Z,7.40
2018-02-17T12:35:13.744Z,7.30
2018-02-17T12:37:41.275Z,7.40
2018-02-17T12:40:08.828Z,7.50
2018-02-17T12:42:37.116Z,7.40
2018-02-17T12:45:04.756Z,7.40
2018-02-17T12:47:32.250Z,7.50
2018-02-17T12:49:59.792Z,7.60
2018-02-17T12:52:27.312Z,7.70
2018-02-17T12:54:54.860Z,7.60
2018-02-17T12:57:22.381Z,7.50
2018-02-17T12:59:49.928Z,7.40
2018-02-17T13:02:17.442Z,7.50
2018-02-17T13:04:44.984Z,7.70
2018-02-17T13:07:12.504Z,7.60
2018-02-17T13:09:40.060Z,7.70
2018-02-17T13:12:07.592Z,7.70
2018-02-17T13:14:35.149Z,7.70
2018-02-17T13:17:02.680Z,7.60
2018-02-17T13:19:30.188Z,7.50
2018-02-17T13:21:58.511Z,7.30
2018-02-17T13:24:26.039Z,7.30
2018-02-17T13:26:53.617Z,7.30
2018-02-17T13:29:21.184Z,7.30
2018-02-17T13:31:48.696Z,7.30
2018-02-17T13:34:16.234Z,7.30
2018-02-17T13:36:44.599Z,7.20
2018-02-17T13:39:12.143Z,7.20
2018-02-17T13:41:39.688Z,7.40
2018-02-17T13:44:07.981Z,7.50
2018-02-17T13:46:35.537Z,7.50
2018-02-17T13:49:03.056Z,7.60
2018-02-17T13:51:30.602Z,7.60
2018-02-17T13:53:58.164Z,7.80
2018-02-17T13:56:26.452Z,8.00
2018-02-17T13:58:54.760Z,8.10
2018-02-17T14:01:22.269Z,8.10
2018-02-17T14:03:49.821Z,8.10
2018-02-17T14:06:17.335Z,7.80
2018-02-17T14:08:44.897Z,7.90
2018-02-17T14:11:12.448Z,8.00
2018-02-17T14:13:39.956Z,7.80
2018-02-17T14:16:07.503Z,7.80
2018-02-17T14:18:35.039Z,7.60
2018-02-17T14:21:02.607Z,7.40
2018-02-17T14:23:30.136Z,7.30
2018-02-17T14:25:57.696Z,7.20
2018-02-17T14:28:25.239Z,7.00
2018-02-17T14:30:52.756Z,7.00
2018-02-17T14:33:20.320Z,7.00
2018-02-17T14:35:47.843Z,6.90
2018-02-17T14:38:15.388Z,6.80
2018-02-17T14:40:43.672Z,6.70
2018-02-17T14:43:11.976Z,6.60
2018-02-17T14:45:40.268Z,6.60
2018-02-17T14:48:07.824Z,6.60
2018-02-17T14:50:35.369Z,6.60
2018-02-17T14:53:02.912Z,6.50
2018-02-17T14:55:30.479Z,6.60
2018-02-17T14:57:58.035Z,6.60
2018-02-17T15:00:25.611Z,6.70
2018-02-17T15:02:53.128Z,6.70
2018-02-17T15:05:21.216Z,6.80
2018-02-17T15:07:48.825Z,6.90
2018-02-17T15:10:16.354Z,6.90
2018-02-17T15:12:43.872Z,6.90
2018-02-17T15:15:12.189Z,6.90
2018-02-17T15:17:39.704Z,6.90
2018-02-17T15:20:07.636Z,6.90
2018-02-17T15:22:35.162Z,6.80
2018-02-17T15:25:02.688Z,6.70
2018-02-17T15:27:30.246Z,6.70
2018-02-17T15:29:57.783Z,6.60
2018-02-17T15:32:25.334Z,6.50
2018-02-17T15:34:52.872Z,6.50
2018-02-17T15:37:20.445Z,6.40
2018-02-17T15:39:47.978Z,6.40
2018-02-17T15:42:16.311Z,6.40
2018-02-17T15:44:43.828Z,6.30
2018-02-17T15:47:11.374Z,6.30
2018-02-17T15:49:38.913Z,6.30
2018-02-17T15:52:06.441Z,6.30
2018-02-17T15:54:33.980Z,6.30
2018-02-17T15:57:02.279Z,6.20
2018-02-17T15:59:29.824Z,6.20
2018-02-17T16:01:57.335Z,6.20
2018-02-17T16:04:24.881Z,6.20
2018-02-17T16:06:52.410Z,6.10
2018-02-17T16:09:19.970Z,6.10
2018-02-17T16:11:47.484Z,6.10
2018-02-17T16:14:15.042Z,6.10
2018-02-17T16:16:42.563Z,6.00
2018-02-17T16:19:10.136Z,5.90
2018-02-17T16:21:37.651Z,5.90
2018-02-17T16:24:05.924Z,5.60
2018-02-17T16:26:34.242Z,5.40
2018-02-17T16:29:01.790Z,5.40
2018-02-17T16:31:29.348Z,5.20
2018-02-17T16:33:56.900Z,5.20
2018-02-17T16:36:24.433Z,5.00
2018-02-17T16:38:51.990Z,4.90
2018-02-17T16:41:19.511Z,4.70
2018-02-17T16:43:47.068Z,4.50
2018-02-17T16:46:14.585Z,4.30
2018-02-17T16:48:42.119Z,4.00
2018-02-17T16:51:09.689Z,3.70
2018-02-17T16:53:37.258Z,3.30
2018-02-17T16:56:04.779Z,3.00
2018-02-17T16:58:33.098Z,2.60
2018-02-17T17:01:00.620Z,2.60
2018-02-17T17:03:28.162Z,2.40
2018-02-17T17:05:55.684Z,2.20
2018-02-17T17:08:24.087Z,1.90
2018-02-17T17:10:52.372Z,1.70
2018-02-17T17:13:20.724Z,1.60
2018-02-17T17:15:48.241Z,1.50
2018-02-17T17:18:16.564Z,1.30
2018-02-17T17:20:44.104Z,1.30
2018-02-17T17:23:12.419Z,1.20
2018-02-17T17:25:39.936Z,1.20
2018-02-17T17:28:07.447Z,1.20
2018-02-17T17:30:35.763Z,1.00
2018-02-17T17:33:03.351Z,0.90
2018-02-17T17:35:30.862Z,0.90
2018-02-17T17:37:58.401Z,0.90
2018-02-17T17:40:25.931Z,0.80
2018-02-17T17:42:53.476Z,0.70
2018-02-17T17:45:21.104Z,0.60
2018-02-17T17:47:48.653Z,0.60
2018-02-17T17:50:16.175Z,0.40
2018-02-17T17:52:44.493Z,0.30
2018-02-17T17:55:12.024Z,0.20
2018-02-17T17:57:39.588Z,0.10
2018-02-17T18:00:07.116Z,0.00
2018-02-17T18:02:35.438Z,-0.10
2018-02-17T18:05:02.956Z,-0.10
2018-02-17T18:07:30.519Z,-0.20
2018-02-17T18:09:58.051Z,-0.20
2018-02-17T18:12:25.609Z,-0.30
2018-02-17T18:14:53.139Z,-0.40
2018-02-17T18:17:20.692Z,-0.50
2018-02-17T18:19:48.212Z,-0.60
2018-02-17T18:22:15.884Z,-0.50
2018-02-17T18:24:43.404Z,-0.60
2018-02-17T18:27:10.948Z,-0.60
2018-02-17T18:29:38.501Z,-0.70
2018-02-17T18:32:06.818Z,-0.80
2018-02-17T18:34:34.340Z,-0.80
2018-02-17T18:37:01.889Z,-0.70
2018-02-17T18:39:29.412Z,-0.70
2018-02-17T18:41:57.736Z,-0.70
2018-02-17T18:44:25.276Z,-0.70
2018-02-17T18:46:52.875Z,-0.70
2018-02-17T18:49:20.408Z,-0.70
2018-02-17T18:51:48.745Z,-0.70
2018-02-17T18:54:17.327Z,-0.70
2018-02-17T18:56:44.889Z,-0.70
2018-02-17T18:59:13.173Z,-0.70
2018-02-17T19:01:40.773Z,-0.70
2018-02-17T19:04:08.311Z,-0.80
2018-02-17T19:06:36.610Z,-1.00
2018-02-17T19:09:04.215Z,-1.00
2018-02-17T19:11:31.757Z,-1.10
2018-02-17T19:13:59.319Z,-1.10
2018-02-17T19:16:26.827Z,-1.20
2018-02-17T19:18:54.412Z,-1.20
2018-02-17T19:21:21.936Z,-1.30
2018-02-17T19:23:49.549Z,-1.30
2018-02-17T19:26:17.069Z,-1.30
2018-02-17T19:28:45.521Z,-1.30
2018-02-17T19:31:13.899Z,-1.30
2018-02-17T19:33:41.448Z,-1.30
2018-02-17T19:36:09.004Z,-1.40
2018-02-17T19:38:37.299Z,-1.50
2018-02-17T19:41:05.616Z,-1.50
2018-02-17T19:43:33.136Z,-1.60
2018-02-17T19:46:00.701Z,-1.60
2018-02-17T19:48:28.240Z,-1.50
2018-02-17T19:50:55.792Z,-1.50
2018-02-17T19:53:24.176Z,-1.50
2018-02-17T19:55:51.736Z,-1.50
2018-02-17T19:58:20.031Z,-1.50
2018-02-17T20:00:48.352Z,-1.40
2018-02-17T20:03:15.984Z,-1.40
2018-02-17T20:05:43.517Z,-1.10
2018-02-17T20:08:11.048Z,-0.90
2018-02-17T20:10:38.617Z,-0.80
2018-02-17T20:13:06.917Z,-0.80
2018-02-17T20:15:34.498Z,-0.90
2018-02-17T20:18:02.035Z,-1.00
2018-02-17T20:20:29.609Z,-1.10
2018-02-17T20:22:57.140Z,-1.20
2018-02-17T20:25:24.707Z,-1.40
2018-02-17T20:27:52.238Z,-1.50
2018-02-17T20:30:20.537Z,-1.80
2018-02-17T20:32:48.098Z,-1.80
2018-02-17T20:35:16.389Z,-1.90
2018-02-17T20:37:44.744Z,-2.00
2018-02-17T20:40:12.265Z,-2.00
2018-02-17T20:42:39.818Z,-2.10
2018-02-17T20:45:08.114Z,-2.20
2018-02-17T20:47:36.433Z,-2.20
2018-02-17T20:50:03.960Z,-2.20
2018-02-17T20:52:31.508Z,-2.30
2018-02-17T20:54:59.068Z,-2.30
2018-02-17T20:57:27.625Z,-2.40
2018-02-17T20:59:55.212Z,-2.40
2018-02-17T21:02:22.737Z,-2.50
2018-02-17T21:04:50.308Z,-2.40
2018-02-17T21:07:17.838Z,-2.30
2018-02-17T21:09:45.483Z,-2.30
2018-02-17T21:12:12.962Z,-2.30
2018-02-17T21:14:40.525Z,-2.30
2018-02-17T21:17:08.069Z,-2.40
2018-02-17T21:19:35.639Z,-2.60
2018-02-17T21:22:03.256Z,-2.60
2018-02-17T21:24:30.823Z,-2.70
2018-02-17T21:26:58.387Z,-2.70
2018-02-17T21:29:26.701Z,-2.70
2018-02-17T21:31:54.231Z,-2.70
2018-02-17T21:34:21.810Z,-2.60
2018-02-17T21:36:50.099Z,-2.70
2018-02-17T21:39:17.635Z,-2.70
2018-02-17T21:41:45.201Z,-2.60
2018-02-17T21:44:12.724Z,-2.50
2018-02-17T21:46:41.041Z,-2.70
2018-02-17T21:49:08.568Z,-2.70
2018-02-17T21:51:36.137Z,-2.90
2018-02-17T21:54:03.666Z,-3.00
2018-02-17T21:56:31.215Z,-3.10
2018-02-17T21:58:59.530Z,-3.20
2018-02-17T22:01:27.094Z,-3.20
2018-02-17T22:03:54.628Z,-3.30
2018-02-17T22:06:22.958Z,-3.30
2018-02-17T22:08:50.530Z,-3.40
2018-02-17T22:11:18.050Z,-3.30
2018-02-17T22:13:45.618Z,-3.20
2018-02-17T22:16:13.183Z,-3.10
2018-02-17T22:18:40.735Z,-3.00
2018-02-17T22:21:08.263Z,-2.90
2018-02-17T22:23:36.587Z,-2.90
2018-02-17T22:26:04.104Z,-2.90
2018-02-17T22:28:31.660Z,-2.90
2018-02-17T22:30:59.232Z,-2.80
2018-02-17T22:33:26.768Z,-2.80
2018-02-17T22:35:54.328Z,-2.80
2018-02-17T22:38:21.880Z,-2.80
2018-02-17T22:40:50.214Z,-2.80
2018-02-17T22:43:17.735Z,-2.80
2018-02-17T22:45:45.290Z,-2.80
2018-02-17T22:48:12.807Z,-2.80
2018-02-17T22:50:40.376Z,-2.80
2018-02-17T22:53:07.964Z,-2.80
2018-02-17T22:55:35.523Z,-2.80
2018-02-17T22:58:03.060Z,-2.80
2018-02-17T23:00:30.619Z,-2.90
2018-02-17T23:02:58.258Z,-2.90
2018-02-17T23:05:25.724Z,-2.90
2018-02-17T23:07:53.288Z,-2.90
2018-02-17T23:10:20.820Z,-2.90
2018-02-17T23:12:48.393Z,-2.90
2018-02-17T23:15:16.830Z,-2.90
2018-02-17T23:17:44.390Z,-2.90
2018-02-17T23:20:12.685Z,-2.80
2018-02-17T23:22:40.239Z,-2.80
2018-02-17T23:25:07.773Z,-2.70
2018-02-17T23:27:35.327Z,-2.60
2018-02-17T23:30:02.888Z,-2.60
2018-02-17T23:32:30.415Z,-2.60
2018-02-17T23:34:57.980Z,-2.50
2018-02-17T23:37:25.512Z,-2.50
2018-02-17T23:39:53.852Z,-2.50
2018-02-17T23:42:21.377Z,-2.50
2018-02-17T23:44:48.943Z,-2.50
2018-02-17T23:47:16.466Z,-2.40
2018-02-17T23:49:44.052Z,-2.40
2018-02-17T23:52:11.566Z,-2.40
2018-02-17T23:54:39.111Z,-2.50
2018-02-17T23:57:07.405Z,-2.50
2018-02-17T23:59:35.055Z,-2.50
